createdAt,value
2022-10-20T00:01:05.576Z,3.70
2022-10-20T00:03:34.828Z,3.70
2022-10-20T00:06:30.292Z,3.70
2022-10-20T00:09:03.312Z,3.70
2022-10-20T00:11:33.191Z,3.60
2022-10-20T00:14:04.028Z,3.70
2022-10-20T00:16:37.015Z,3.70
2022-10-20T00:19:08.156Z,3.70
2022-10-20T00:21:37.458Z,3.70
2022-10-20T00:24:06.758Z,3.70
2022-10-20T00:26:36.059Z,3.60
2022-10-20T00:29:05.932Z,3.50
2022-10-20T00:31:35.579Z,3.50
2022-10-20T00:34:04.823Z,3.40
2022-10-20T00:36:34.770Z,3.50
2022-10-20T00:39:06.555Z,3.50
2022-10-20T00:41:36.472Z,3.50
2022-10-20T00:44:44.459Z,3.60
2022-10-20T00:47:23.916Z,3.70
2022-10-20T00:49:54.324Z,3.80
2022-10-20T00:52:24.567Z,3.90
2022-10-20T00:54:54.454Z,3.90
2022-10-20T00:57:27.570Z,4.00
2022-10-20T00:59:56.258Z,4.10
2022-10-20T01:02:26.170Z,4.10
2022-10-20T01:04:56.099Z,4.10
2022-10-20T01:07:26.006Z,4.10
2022-10-20T01:09:55.859Z,4.20
2022-10-20T01:12:54.091Z,4.20
2022-10-20T01:15:26.163Z,4.20
2022-10-20T01:18:19.567Z,4.20
2022-10-20T01:21:16.058Z,4.20
2022-10-20T01:23:45.670Z,4.10
2022-10-20T01:26:54.447Z,4.00
2022-10-20T01:29:25.739Z,3.90
2022-10-20T01:32:03.955Z,3.90
2022-10-20T01:35:11.038Z,3.80
2022-10-20T01:37:53.681Z,3.80
2022-10-20T01:40:37.287Z,3.80
2022-10-20T01:43:10.886Z,3.80
2022-10-20T01:45:45.413Z,3.80
2022-10-20T01:48:16.248Z,3.90
2022-10-20T01:50:48.006Z,3.90
2022-10-20T01:53:17.922Z,3.80
2022-10-20T01:55:47.225Z,3.80
2022-10-20T01:58:42.022Z,3.70
2022-10-20T02:02:03.080Z,3.60
2022-10-20T02:04:56.198Z,3.50
2022-10-20T02:07:31.946Z,3.40
2022-10-20T02:10:33.505Z,3.40
2022-10-20T02:13:08.639Z,3.40
2022-10-20T02:15:42.244Z,3.50
2022-10-20T02:18:13.081Z,3.50
2022-10-20T02:20:44.825Z,3.60
2022-10-20T02:23:14.434Z,3.60
2022-10-20T02:25:44.361Z,3.70
2022-10-20T02:28:16.123Z,3.70
2022-10-20T02:30:46.951Z,3.70
2022-10-20T02:33:19.020Z,3.80
2022-10-20T02:35:57.840Z,3.70
2022-10-20T02:38:27.147Z,3.70
2022-10-20T02:40:56.134Z,3.70
2022-10-20T02:43:26.052Z,3.60
2022-10-20T02:45:55.660Z,3.60
2022-10-20T02:48:25.267Z,3.60
2022-10-20T02:50:55.485Z,3.70
2022-10-20T02:53:24.736Z,3.80
2022-10-20T02:55:54.505Z,4.00
2022-10-20T02:58:24.427Z,4.10
2022-10-20T03:00:53.612Z,4.20
2022-10-20T03:03:22.603Z,4.30
2022-10-20T03:05:51.903Z,4.40
2022-10-20T03:08:21.821Z,4.50
2022-10-20T03:10:51.732Z,4.60
2022-10-20T03:13:21.096Z,4.70
2022-10-20T03:15:50.643Z,4.80
2022-10-20T03:18:20.864Z,5.00
2022-10-20T03:20:53.853Z,5.10
2022-10-20T03:23:23.457Z,5.20
2022-10-20T03:25:52.462Z,5.30
2022-10-20T03:28:22.369Z,5.30
2022-10-20T03:30:51.977Z,5.40
2022-10-20T03:33:21.891Z,5.50
2022-10-20T03:35:52.114Z,5.50
2022-10-20T03:38:21.417Z,5.50
2022-10-20T03:40:50.730Z,5.60
2022-10-20T03:43:20.935Z,5.60
2022-10-20T03:45:50.849Z,5.70
2022-10-20T03:48:20.764Z,5.70
2022-10-20T03:50:50.375Z,5.80
2022-10-20T03:53:19.983Z,5.80
2022-10-20T03:55:51.127Z,5.80
2022-10-20T03:58:20.426Z,5.90
2022-10-20T04:00:50.339Z,5.90
2022-10-20T04:03:19.641Z,5.90
2022-10-20T04:05:49.867Z,6.00
2022-10-20T04:08:18.255Z,6.00
2022-10-20T04:10:47.235Z,5.90
2022-10-20T04:13:16.233Z,6.00
2022-10-20T04:15:45.531Z,5.90
2022-10-20T04:18:14.402Z,5.90
2022-10-20T04:20:44.545Z,5.90
2022-10-20T04:23:14.465Z,5.90
2022-10-20T04:25:50.410Z,5.80
2022-10-20T04:28:22.788Z,5.80
2022-10-20T04:30:53.313Z,5.70
2022-10-20T04:33:21.998Z,5.60
2022-10-20T04:38:21.820Z,5.40
2022-10-20T04:40:59.168Z,5.30
2022-10-20T04:43:31.798Z,5.30
2022-10-20T04:46:08.315Z,5.30
2022-10-20T04:48:39.611Z,5.30
2022-10-20T04:51:12.295Z,5.30
2022-10-20T04:53:41.597Z,5.30
2022-10-20T04:56:14.394Z,5.30
2022-10-20T04:58:44.189Z,5.30
2022-10-20T05:01:14.157Z,5.30
2022-10-20T05:03:44.015Z,5.30
2022-10-20T05:06:17.933Z,5.40
2022-10-20T05:08:49.427Z,5.40
2022-10-20T05:11:20.217Z,5.40
2022-10-20T05:13:50.438Z,5.50
2022-10-20T05:16:20.965Z,5.50
2022-10-20T05:18:53.335Z,5.50
2022-10-20T05:21:26.020Z,5.60
2022-10-20T05:24:00.856Z,5.50
2022-10-20T05:26:35.988Z,5.50
2022-10-20T05:29:11.433Z,5.50
2022-10-20T05:31:46.567Z,5.50
2022-10-20T05:34:16.173Z,5.50
2022-10-20T05:36:46.092Z,5.50
2022-10-20T07:39:17.426Z,8.70
2022-10-20T07:41:47.315Z,8.70
2022-10-20T07:44:15.472Z,8.80
2022-10-20T07:46:42.510Z,8.70
2022-10-20T07:51:56.477Z,8.60
2022-10-20T07:54:23.482Z,8.70
2022-10-20T07:56:50.370Z,9.00
2022-10-20T07:59:17.371Z,9.30
2022-10-20T08:01:44.772Z,9.70
2022-10-20T08:04:12.040Z,10.10
2022-10-20T08:06:39.621Z,10.30
2022-10-20T08:09:07.471Z,10.40
2022-10-20T08:11:35.460Z,10.70
2022-10-20T08:14:02.590Z,10.80
2022-10-20T08:16:42.422Z,10.80
2022-10-20T08:20:52.076Z,10.90
2022-10-20T08:22:04.683Z,10.90
2022-10-20T08:24:31.600Z,10.80
2022-10-20T08:26:58.510Z,10.70
2022-10-20T08:29:25.476Z,10.40
2022-10-20T08:31:52.401Z,10.20
2022-10-20T08:34:19.298Z,10.10
2022-10-20T08:36:46.248Z,10.00
2022-10-20T08:39:15.892Z,10.00
2022-10-20T08:42:07.084Z,10.00
2022-10-20T08:44:35.944Z,10.10
2022-10-20T08:47:05.234Z,10.20
2022-10-20T08:49:35.099Z,10.30
2022-10-20T08:52:02.358Z,10.40
2022-10-20T08:54:29.583Z,10.50
2022-10-20T08:56:56.644Z,10.70
2022-10-20T08:59:26.360Z,10.80
2022-10-20T09:01:55.141Z,10.90
2022-10-20T09:04:37.911Z,11.00
2022-10-20T09:07:28.002Z,11.00
2022-10-20T09:10:16.298Z,10.90
2022-10-20T09:12:46.256Z,10.90
2022-10-20T09:15:15.243Z,10.80
2022-10-20T09:17:45.639Z,10.80
2022-10-20T09:20:20.829Z,10.90
2022-10-20T09:22:48.522Z,10.90
2022-10-20T09:25:24.019Z,10.90
2022-10-20T09:27:52.056Z,11.00
2022-10-20T09:30:19.118Z,11.00
2022-10-20T09:32:47.812Z,11.10
2022-10-20T09:35:25.053Z,11.10
2022-10-20T09:38:18.150Z,11.30
2022-10-20T09:40:55.030Z,11.40
2022-10-20T09:43:22.005Z,11.40
2022-10-20T09:45:58.695Z,11.40
2022-10-20T09:48:31.876Z,11.30
2022-10-20T09:51:00.309Z,11.30
2022-10-20T09:53:45.861Z,11.30
2022-10-20T09:56:12.864Z,11.30
2022-10-20T09:58:40.086Z,11.40
2022-10-20T10:01:15.457Z,11.50
2022-10-20T10:03:56.234Z,11.60
2022-10-20T10:06:43.970Z,11.80
2022-10-20T10:09:28.014Z,11.80
2022-10-20T10:12:21.891Z,11.80
2022-10-20T10:14:55.192Z,11.70
2022-10-20T10:17:37.598Z,11.50
2022-10-20T10:20:10.373Z,11.40
2022-10-20T10:22:44.283Z,11.40
2022-10-20T10:25:33.250Z,11.50
2022-10-20T10:28:10.660Z,11.60
2022-10-20T10:30:38.830Z,11.60
2022-10-20T10:33:27.614Z,11.70
2022-10-20T10:35:55.089Z,11.70
2022-10-20T10:38:22.388Z,11.60
2022-10-20T10:41:19.937Z,11.70
2022-10-20T10:44:25.772Z,11.60
2022-10-20T10:47:21.218Z,11.50
2022-10-20T10:50:07.205Z,11.50
2022-10-20T10:53:10.050Z,11.60
2022-10-20T10:56:19.391Z,11.50
2022-10-20T10:58:53.475Z,11.50
2022-10-20T11:01:26.348Z,11.50
2022-10-20T11:04:23.844Z,11.50
2022-10-20T11:07:07.483Z,11.40
2022-10-20T11:09:50.762Z,11.30
2022-10-20T11:12:20.794Z,11.40
2022-10-20T11:15:06.514Z,11.30
2022-10-20T11:17:44.933Z,11.20
2022-10-20T11:20:53.249Z,11.20
2022-10-20T11:23:29.209Z,11.30
2022-10-20T11:26:06.687Z,11.20
2022-10-20T11:28:46.849Z,11.20
2022-10-20T11:31:46.883Z,11.20
2022-10-20T11:34:26.419Z,11.20
2022-10-20T11:37:06.452Z,11.20
2022-10-20T11:39:48.096Z,11.20
2022-10-20T11:42:25.391Z,11.10
2022-10-20T11:44:54.333Z,11.20
2022-10-20T11:47:36.841Z,11.10
2022-10-20T11:50:10.287Z,11.10
2022-10-20T11:53:06.120Z,11.10
2022-10-20T11:56:17.965Z,11.00
2022-10-20T11:58:50.295Z,11.10
2022-10-20T12:01:27.784Z,11.00
2022-10-20T12:04:23.302Z,11.00
2022-10-20T12:06:56.319Z,10.90
2022-10-20T12:12:34.526Z,10.90
2022-10-20T12:15:04.006Z,10.90
2022-10-20T12:17:41.819Z,10.90
2022-10-20T12:20:20.659Z,10.90
2022-10-20T12:22:53.151Z,11.00
2022-10-20T12:25:26.038Z,11.00
2022-10-20T12:28:20.653Z,11.00
2022-10-20T12:30:57.619Z,11.00
2022-10-20T12:33:50.194Z,10.90
2022-10-20T12:36:17.061Z,10.90
2022-10-20T12:39:08.090Z,11.00
2022-10-20T12:41:39.662Z,11.00
2022-10-20T12:44:14.824Z,11.00
2022-10-20T12:46:51.838Z,11.10
2022-10-20T12:49:28.603Z,11.20
2022-10-20T12:51:57.288Z,11.20
2022-10-20T12:54:41.119Z,11.30
2022-10-20T12:57:27.543Z,11.30
2022-10-20T12:59:54.652Z,11.30
2022-10-20T13:02:24.349Z,11.20
2022-10-20T13:05:06.489Z,11.20
2022-10-20T13:07:48.695Z,11.10
2022-10-20T15:11:00.797Z,9.70
2022-10-20T15:13:32.902Z,9.70
2022-10-20T15:16:02.781Z,9.70
2022-10-20T15:18:30.201Z,9.70
2022-10-20T15:20:57.385Z,9.80
2022-10-20T15:23:26.942Z,9.70
2022-10-20T15:26:03.172Z,9.70
2022-10-20T15:28:47.525Z,9.70
2022-10-20T15:31:22.487Z,9.70
2022-10-20T15:33:50.140Z,9.60
2022-10-20T15:36:22.397Z,9.60
2022-10-20T15:38:50.208Z,9.60
2022-10-20T15:41:20.375Z,9.60
2022-10-20T15:43:47.579Z,9.60
2022-10-20T15:46:15.745Z,9.50
2022-10-20T15:48:43.657Z,9.60
2022-10-20T15:51:27.224Z,9.50
2022-10-20T15:53:54.713Z,9.50
2022-10-20T15:56:22.031Z,9.50
2022-10-20T15:58:52.916Z,9.50
2022-10-20T16:01:20.616Z,9.50
2022-10-20T16:03:48.612Z,9.60
2022-10-20T16:06:18.593Z,9.50
2022-10-20T16:08:47.928Z,9.50
2022-10-20T16:11:16.813Z,9.50
2022-10-20T16:13:44.133Z,9.50
2022-10-20T16:16:17.158Z,9.50
2022-10-20T16:18:44.258Z,9.50
2022-10-20T16:21:11.479Z,9.50
2022-10-20T16:23:42.406Z,9.50
2022-10-20T16:26:13.694Z,9.40
2022-10-20T16:28:40.999Z,9.40
2022-10-20T16:31:10.489Z,9.40
2022-10-20T16:33:43.417Z,9.40
2022-10-20T16:36:12.820Z,9.40
2022-10-20T16:38:40.480Z,9.40
2022-10-20T16:41:14.259Z,9.30
2022-10-20T16:43:43.824Z,9.30
2022-10-20T16:46:12.486Z,9.30
2022-10-20T16:48:41.555Z,9.30
2022-10-20T16:51:13.033Z,9.30
2022-10-20T16:53:39.928Z,9.30
2022-10-20T16:56:08.101Z,9.30
2022-10-20T16:58:35.675Z,9.20
2022-10-20T17:01:04.485Z,9.20
2022-10-20T17:03:31.622Z,9.20
2022-10-20T17:06:01.253Z,9.20
2022-10-20T17:08:28.636Z,9.20
2022-10-20T17:10:57.887Z,9.20
2022-10-20T17:13:25.096Z,9.10
2022-10-20T17:15:52.327Z,9.10
2022-10-20T17:18:19.364Z,9.10
2022-10-20T17:20:46.409Z,9.10
2022-10-20T17:23:13.377Z,9.10
2022-10-20T17:25:40.362Z,9.00
2022-10-20T17:28:07.345Z,9.00
2022-10-20T17:30:34.278Z,9.00
2022-10-20T17:33:01.212Z,9.00
2022-10-20T17:35:29.366Z,8.90
2022-10-20T17:37:56.250Z,8.90
2022-10-20T17:40:23.213Z,8.90
2022-10-20T17:42:50.187Z,8.90
2022-10-20T17:45:17.150Z,8.90
2022-10-20T17:47:44.049Z,8.90
2022-10-20T17:50:11.104Z,8.80
2022-10-20T17:52:38.386Z,8.70
2022-10-20T17:55:06.047Z,8.70
2022-10-20T17:57:32.955Z,8.60
2022-10-20T18:00:03.148Z,8.50
2022-10-20T18:02:32.728Z,8.50
2022-10-20T18:04:59.729Z,8.50
2022-10-20T18:07:27.605Z,8.40
2022-10-20T18:09:54.614Z,8.30
2022-10-20T18:12:21.554Z,8.30
2022-10-20T18:14:48.469Z,8.20
2022-10-20T18:17:15.381Z,8.20
2022-10-20T18:19:42.754Z,8.10
2022-10-20T18:22:09.638Z,8.10
2022-10-20T18:24:37.404Z,8.00
2022-10-20T18:27:05.913Z,7.90
2022-10-20T18:29:32.993Z,7.80
2022-10-20T18:31:59.898Z,7.70
2022-10-20T18:34:26.876Z,7.60
2022-10-20T18:36:55.634Z,7.50
2022-10-20T18:39:22.807Z,7.40
2022-10-20T18:41:54.600Z,7.30
2022-10-20T18:44:21.900Z,7.10
2022-10-20T18:46:48.911Z,7.00
2022-10-20T18:49:19.730Z,7.00
2022-10-20T18:51:47.764Z,6.90
2022-10-20T18:54:15.531Z,6.80
2022-10-20T18:56:43.118Z,6.70
2022-10-20T18:59:13.937Z,6.60
2022-10-20T19:01:41.193Z,6.50
2022-10-20T19:04:09.947Z,6.40
2022-10-20T19:06:43.337Z,6.40
2022-10-20T19:09:14.568Z,6.30
2022-10-20T19:11:42.099Z,6.20
2022-10-20T19:14:10.562Z,6.00
2022-10-20T19:16:39.319Z,5.90
2022-10-20T19:19:07.997Z,5.80
2022-10-20T19:21:35.553Z,5.70
2022-10-20T19:24:08.969Z,5.60
2022-10-20T19:26:42.681Z,5.50
2022-10-20T19:29:15.446Z,5.40
2022-10-20T19:31:44.177Z,5.30
2022-10-20T19:34:15.352Z,5.20
2022-10-20T19:36:42.835Z,5.10
2022-10-20T19:39:11.710Z,5.00
2022-10-20T19:41:39.055Z,4.90
2022-10-20T19:44:06.760Z,4.90
2022-10-20T19:46:33.897Z,4.70
2022-10-20T19:49:00.840Z,4.70
2022-10-20T19:51:27.819Z,4.60
2022-10-20T19:53:54.778Z,4.60
2022-10-20T19:56:21.715Z,4.50
2022-10-20T19:58:48.938Z,4.40
2022-10-20T20:01:17.025Z,4.40
2022-10-20T20:03:44.221Z,4.30
2022-10-20T20:06:17.307Z,4.20
2022-10-20T20:08:46.442Z,4.20
2022-10-20T20:11:23.470Z,4.10
2022-10-20T20:13:52.204Z,4.10
2022-10-20T20:16:19.637Z,4.00
2022-10-20T20:18:47.224Z,4.00
2022-10-20T20:21:15.394Z,4.00
2022-10-20T20:23:58.358Z,4.00
2022-10-20T20:26:28.170Z,3.90
2022-10-20T20:28:56.119Z,3.80
2022-10-20T20:31:23.799Z,3.70
2022-10-20T20:33:51.112Z,3.60
2022-10-20T20:36:18.099Z,3.60
2022-10-20T20:38:45.726Z,3.50
2022-10-20T20:41:15.312Z,3.40
2022-10-20T20:43:45.237Z,3.40
2022-10-20T20:46:15.364Z,3.30
2022-10-20T20:48:42.394Z,3.30
2022-10-20T20:51:09.462Z,3.20
2022-10-20T20:53:37.251Z,3.20
2022-10-20T20:56:07.130Z,3.10
2022-10-20T20:58:34.603Z,3.10
2022-10-20T21:01:09.120Z,3.10
2022-10-20T21:03:36.635Z,3.10
2022-10-20T21:06:12.475Z,3.00
2022-10-20T21:08:40.882Z,2.90
2022-10-20T21:11:13.175Z,2.90
2022-10-20T21:13:41.492Z,2.80
2022-10-20T21:16:15.812Z,2.80
2022-10-20T21:18:47.765Z,2.80
2022-10-20T21:21:22.094Z,2.70
2022-10-20T21:23:49.418Z,2.70
2022-10-20T21:26:18.739Z,2.70
2022-10-20T21:28:46.802Z,2.70
2022-10-20T21:31:16.445Z,2.70
2022-10-20T21:33:43.533Z,2.70
2022-10-20T21:36:13.793Z,2.70
2022-10-20T21:38:42.274Z,2.70
2022-10-20T21:41:14.935Z,2.70
2022-10-20T21:43:45.163Z,2.70
2022-10-20T21:46:19.399Z,2.60
2022-10-20T21:48:48.244Z,2.60
2022-10-20T21:51:19.826Z,2.60
2022-10-20T21:53:47.082Z,2.60
2022-10-20T21:56:14.776Z,2.60
2022-10-20T21:58:42.343Z,2.60
2022-10-20T22:01:13.883Z,2.50
2022-10-20T22:03:42.553Z,2.50
2022-10-20T22:06:12.128Z,2.50
2022-10-20T22:08:41.074Z,2.40
2022-10-20T22:11:16.524Z,2.40
2022-10-20T22:13:43.784Z,2.30
2022-10-20T22:16:15.208Z,2.20
2022-10-20T22:18:42.415Z,2.20
2022-10-20T22:21:13.605Z,2.10
2022-10-20T22:23:41.549Z,2.10
2022-10-20T22:26:09.405Z,2.10
2022-10-20T22:28:36.604Z,2.10
2022-10-20T22:31:05.107Z,2.00
2022-10-20T22:33:32.610Z,2.00
2022-10-20T22:35:59.509Z,2.10
2022-10-20T22:38:26.436Z,2.10
2022-10-20T22:40:57.311Z,2.00
2022-10-20T22:43:24.083Z,2.00
2022-10-20T22:45:54.960Z,1.90
2022-10-20T22:48:22.083Z,1.90
2022-10-20T22:50:49.236Z,1.80
2022-10-20T22:53:16.184Z,1.70
2022-10-20T22:55:43.183Z,1.70
2022-10-20T22:58:10.106Z,1.70
2022-10-20T23:00:39.285Z,1.60
2022-10-20T23:03:06.252Z,1.60
2022-10-20T23:05:33.342Z,1.60
2022-10-20T23:08:00.278Z,1.60
2022-10-20T23:10:27.310Z,1.60
2022-10-20T23:12:54.429Z,1.60
2022-10-20T23:15:21.442Z,1.60
2022-10-20T23:17:48.412Z,1.60
2022-10-20T23:20:15.471Z,1.60
2022-10-20T23:22:42.463Z,1.60
2022-10-20T23:25:09.706Z,1.50
2022-10-20T23:27:36.878Z,1.60
2022-10-20T23:30:04.443Z,1.60
2022-10-20T23:32:31.413Z,1.60
2022-10-20T23:34:58.365Z,1.60
2022-10-20T23:37:25.265Z,1.60
2022-10-20T23:39:52.152Z,1.50
2022-10-20T23:42:19.085Z,1.50
2022-10-20T23:44:45.959Z,1.50
2022-10-20T23:47:12.943Z,1.50
2022-10-20T23:49:39.814Z,1.40
2022-10-20T23:52:06.731Z,1.40
2022-10-20T23:54:33.652Z,1.40
2022-10-20T23:57:01.552Z,1.40
2022-10-20T23:59:28.453Z,1.40
